sensor_id;sensor_type;location;lat;lon;timestamp;pressure;altitude;pressure_sealevel;temperature;humidity
31346;BME280;21711;49.708;18.568;2022-11-14T00:02:42;98344.06;;;2.58;100.00
31346;BME280;21711;49.708;18.568;2022-11-14T00:05:28;98344.06;;;2.58;100.00
31346;BME280;21711;49.708;18.568;2022-11-14T00:08:18;98347.91;;;2.62;100.00
31346;BME280;21711;49.708;18.568;2022-11-14T00:11:05;98342.22;;;2.52;100.00
31346;BME280;21711;49.708;18.568;2022-11-14T00:13:51;98339.00;;;2.50;100.00
31346;BME280;21711;49.708;18.568;2022-11-14T00:16:36;98336.97;;;2.45;100.00
31346;BME280;21711;49.708;18.568;2022-11-14T00:19:22;98334.44;;;2.59;100.00
31346;BME280;21711;49.708;18.568;2022-11-14T00:22:08;98334.53;;;2.44;100.00
31346;BME280;21711;49.708;18.568;2022-11-14T00:24:54;98336.19;;;2.52;100.00
31346;BME280;21711;49.708;18.568;2022-11-14T00:27:39;98331.91;;;2.37;100.00
31346;BME280;21711;49.708;18.568;2022-11-14T00:30:26;98335.88;;;2.26;100.00
31346;BME280;21711;49.708;18.568;2022-11-14T00:33:12;98328.69;;;2.35;100.00
31346;BME280;21711;49.708;18.568;2022-11-14T00:36:05;98322.00;;;2.26;100.00
31346;BME280;21711;49.708;18.568;2022-11-14T00:38:53;98328.22;;;2.25;100.00
31346;BME280;21711;49.708;18.568;2022-11-14T00:41:40;98330.13;;;2.09;100.00
31346;BME280;21711;49.708;18.568;2022-11-14T00:44:26;98337.25;;;2.22;100.00
31346;BME280;21711;49.708;18.568;2022-11-14T00:47:12;98335.06;;;2.26;100.00
31346;BME280;21711;49.708;18.568;2022-11-14T00:49:57;98327.56;;;2.51;100.00
31346;BME280;21711;49.708;18.568;2022-11-14T00:52:43;98324.06;;;2.37;100.00
31346;BME280;21711;49.708;18.568;2022-11-14T00:55:29;98321.34;;;2.17;100.00
31346;BME280;21711;49.708;18.568;2022-11-14T00:58:16;98321.13;;;2.12;100.00
31346;BME280;21711;49.708;18.568;2022-11-14T01:01:01;98318.88;;;2.08;100.00
31346;BME280;21711;49.708;18.568;2022-11-14T01:03:49;98314.47;;;2.09;100.00
31346;BME280;21711;49.708;18.568;2022-11-14T01:06:35;98310.88;;;2.10;100.00
31346;BME280;21711;49.708;18.568;2022-11-14T01:09:20;98310.75;;;2.25;100.00
31346;BME280;21711;49.708;18.568;2022-11-14T01:12:06;98303.41;;;2.35;100.00
31346;BME280;21711;49.708;18.568;2022-11-14T01:14:52;98299.16;;;2.34;100.00
31346;BME280;21711;49.708;18.568;2022-11-14T01:17:37;98303.13;;;2.30;100.00
31346;BME280;21711;49.708;18.568;2022-11-14T01:20:23;98296.94;;;2.31;100.00
31346;BME280;21711;49.708;18.568;2022-11-14T01:23:11;98292.94;;;2.35;100.00
31346;BME280;21711;49.708;18.568;2022-11-14T01:26:07;98293.94;;;2.34;100.00
31346;BME280;21711;49.708;18.568;2022-11-14T01:28:53;98289.25;;;2.23;100.00
31346;BME280;21711;49.708;18.568;2022-11-14T01:31:39;98284.03;;;2.23;100.00
31346;BME280;21711;49.708;18.568;2022-11-14T01:34:24;98282.44;;;2.22;100.00
31346;BME280;21711;49.708;18.568;2022-11-14T01:37:11;98275.25;;;2.31;100.00
31346;BME280;21711;49.708;18.568;2022-11-14T01:39:57;98268.84;;;2.40;100.00
31346;BME280;21711;49.708;18.568;2022-11-14T01:48:56;98255.19;;;2.38;100.00
31346;BME280;21711;49.708;18.568;2022-11-14T01:51:49;98256.75;;;2.26;100.00
31346;BME280;21711;49.708;18.568;2022-11-14T01:54:40;98252.38;;;2.40;100.00
31346;BME280;21711;49.708;18.568;2022-11-14T01:57:39;98249.91;;;2.80;100.00
31346;BME280;21711;49.708;18.568;2022-11-14T02:00:27;98259.75;;;2.85;100.00
31346;BME280;21711;49.708;18.568;2022-11-14T02:03:14;98255.34;;;2.85;100.00
31346;BME280;21711;49.708;18.568;2022-11-14T02:06:02;98247.28;;;2.80;100.00
31346;BME280;21711;49.708;18.568;2022-11-14T02:08:50;98251.31;;;2.83;100.00
31346;BME280;21711;49.708;18.568;2022-11-14T02:11:44;98249.53;;;2.97;100.00
31346;BME280;21711;49.708;18.568;2022-11-14T02:14:31;98249.94;;;3.00;100.00
31346;BME280;21711;49.708;18.568;2022-11-14T02:17:18;98240.91;;;2.96;100.00
31346;BME280;21711;49.708;18.568;2022-11-14T02:20:19;98239.72;;;3.12;100.00
31346;BME280;21711;49.708;18.568;2022-11-14T02:23:05;98237.13;;;3.33;100.00
31346;BME280;21711;49.708;18.568;2022-11-14T02:25:51;98237.72;;;3.35;100.00
31346;BME280;21711;49.708;18.568;2022-11-14T02:28:37;98226.03;;;3.24;100.00
31346;BME280;21711;49.708;18.568;2022-11-14T02:31:23;98241.13;;;3.22;100.00
31346;BME280;21711;49.708;18.568;2022-11-14T02:34:09;98231.69;;;3.14;100.00
31346;BME280;21711;49.708;18.568;2022-11-14T02:36:55;98235.06;;;3.14;100.00
31346;BME280;21711;49.708;18.568;2022-11-14T02:39:41;98230.66;;;3.01;100.00
31346;BME280;21711;49.708;18.568;2022-11-14T02:42:27;98227.19;;;2.87;100.00
31346;BME280;21711;49.708;18.568;2022-11-14T02:45:13;98229.00;;;2.80;100.00
31346;BME280;21711;49.708;18.568;2022-11-14T02:47:59;98221.59;;;2.91;100.00
31346;BME280;21711;49.708;18.568;2022-11-14T02:50:48;98223.59;;;2.88;100.00
31346;BME280;21711;49.708;18.568;2022-11-14T02:53:34;98226.41;;;2.94;100.00
31346;BME280;21711;49.708;18.568;2022-11-14T02:56:20;98231.66;;;2.94;100.00
31346;BME280;21711;49.708;18.568;2022-11-14T02:59:06;98226.41;;;2.94;100.00
31346;BME280;21711;49.708;18.568;2022-11-14T03:01:51;98227.81;;;2.89;100.00
31346;BME280;21711;49.708;18.568;2022-11-14T03:04:37;98228.63;;;3.03;100.00
31346;BME280;21711;49.708;18.568;2022-11-14T03:07:23;98220.78;;;3.03;100.00
31346;BME280;21711;49.708;18.568;2022-11-14T03:10:09;98219.59;;;3.06;100.00
31346;BME280;21711;49.708;18.568;2022-11-14T03:12:56;98219.59;;;3.33;100.00
31346;BME280;21711;49.708;18.568;2022-11-14T03:15:42;98221.00;;;3.42;100.00
31346;BME280;21711;49.708;18.568;2022-11-14T03:18:27;98205.50;;;3.34;100.00
31346;BME280;21711;49.708;18.568;2022-11-14T03:21:17;98212.97;;;3.37;100.00
31346;BME280;21711;49.708;18.568;2022-11-14T03:24:04;98223.63;;;3.02;100.00
31346;BME280;21711;49.708;18.568;2022-11-14T03:26:50;98218.97;;;2.91;100.00
31346;BME280;21711;49.708;18.568;2022-11-14T03:29:36;98221.75;;;2.82;100.00
31346;BME280;21711;49.708;18.568;2022-11-14T03:32:21;98223.97;;;2.79;100.00
31346;BME280;21711;49.708;18.568;2022-11-14T03:35:08;98215.72;;;2.75;100.00
31346;BME280;21711;49.708;18.568;2022-11-14T03:37:54;98210.69;;;2.73;100.00
31346;BME280;21711;49.708;18.568;2022-11-14T03:40:41;98213.31;;;2.73;100.00
31346;BME280;21711;49.708;18.568;2022-11-14T03:43:32;98218.72;;;2.65;100.00
31346;BME280;21711;49.708;18.568;2022-11-14T03:46:18;98211.66;;;2.52;100.00
31346;BME280;21711;49.708;18.568;2022-11-14T03:49:04;98204.22;;;2.56;100.00
31346;BME280;21711;49.708;18.568;2022-11-14T03:51:50;98205.59;;;2.38;100.00
31346;BME280;21711;49.708;18.568;2022-11-14T03:54:36;98201.56;;;2.35;100.00
31346;BME280;21711;49.708;18.568;2022-11-14T03:57:22;98194.75;;;2.41;100.00
31346;BME280;21711;49.708;18.568;2022-11-14T04:00:09;98200.84;;;2.62;100.00
31346;BME280;21711;49.708;18.568;2022-11-14T04:02:56;98200.44;;;2.65;100.00
31346;BME280;21711;49.708;18.568;2022-11-14T04:05:45;98194.81;;;2.61;100.00
31346;BME280;21711;49.708;18.568;2022-11-14T04:08:31;98198.03;;;2.57;100.00
31346;BME280;21711;49.708;18.568;2022-11-14T04:11:18;98190.56;;;2.47;100.00
31346;BME280;21711;49.708;18.568;2022-11-14T04:14:04;98196.34;;;2.42;100.00
31346;BME280;21711;49.708;18.568;2022-11-14T04:16:50;98186.75;;;2.49;100.00
31346;BME280;21711;49.708;18.568;2022-11-14T04:19:36;98188.56;;;2.62;100.00
31346;BME280;21711;49.708;18.568;2022-11-14T04:22:22;98184.34;;;2.61;100.00
31346;BME280;21711;49.708;18.568;2022-11-14T04:25:08;98176.31;;;2.56;100.00
31346;BME280;21711;49.708;18.568;2022-11-14T04:27:54;98183.50;;;2.41;100.00
31346;BME280;21711;49.708;18.568;2022-11-14T04:30:41;98176.22;;;2.29;100.00
31346;BME280;21711;49.708;18.568;2022-11-14T04:33:27;98168.47;;;2.56;100.00
31346;BME280;21711;49.708;18.568;2022-11-14T04:36:13;98174.28;;;2.52;100.00
31346;BME280;21711;49.708;18.568;2022-11-14T04:39:00;98165.81;;;2.36;100.00
31346;BME280;21711;49.708;18.568;2022-11-14T04:41:45;98175.22;;;2.30;100.00
31346;BME280;21711;49.708;18.568;2022-11-14T04:44:31;98175.28;;;2.44;100.00
31346;BME280;21711;49.708;18.568;2022-11-14T04:47:17;98178.09;;;2.49;100.00
31346;BME280;21711;49.708;18.568;2022-11-14T04:50:04;98181.13;;;2.53;100.00
31346;BME280;21711;49.708;18.568;2022-11-14T04:52:51;98174.09;;;2.53;100.00
31346;BME280;21711;49.708;18.568;2022-11-14T04:55:38;98168.09;;;2.59;100.00
31346;BME280;21711;49.708;18.568;2022-11-14T04:58:23;98168.69;;;2.68;100.00
31346;BME280;21711;49.708;18.568;2022-11-14T05:01:10;98174.91;;;2.60;100.00
31346;BME280;21711;49.708;18.568;2022-11-14T05:03:58;98174.91;;;2.60;100.00
31346;BME280;21711;49.708;18.568;2022-11-14T05:06:43;98169.91;;;2.66;100.00
31346;BME280;21711;49.708;18.568;2022-11-14T05:09:29;98172.72;;;2.71;100.00
31346;BME280;21711;49.708;18.568;2022-11-14T05:12:15;98174.13;;;2.73;100.00
31346;BME280;21711;49.708;18.568;2022-11-14T05:15:01;98178.94;;;2.63;100.00
31346;BME280;21711;49.708;18.568;2022-11-14T05:17:46;98179.13;;;2.55;100.00
31346;BME280;21711;49.708;18.568;2022-11-14T05:20:32;98175.69;;;2.61;100.00
31346;BME280;21711;49.708;18.568;2022-11-14T05:23:23;98184.38;;;2.68;100.00
31346;BME280;21711;49.708;18.568;2022-11-14T05:26:13;98181.34;;;2.58;100.00
31346;BME280;21711;49.708;18.568;2022-11-14T05:28:59;98181.56;;;2.63;100.00
31346;BME280;21711;49.708;18.568;2022-11-14T05:31:45;98183.13;;;2.57;100.00
31346;BME280;21711;49.708;18.568;2022-11-14T05:34:31;98187.53;;;2.43;100.00
31346;BME280;21711;49.708;18.568;2022-11-14T05:37:16;98184.50;;;2.40;100.00
31346;BME280;21711;49.708;18.568;2022-11-14T05:40:04;98178.69;;;2.38;100.00
31346;BME280;21711;49.708;18.568;2022-11-14T05:42:54;98186.13;;;2.41;100.00
31346;BME280;21711;49.708;18.568;2022-11-14T05:45:41;98180.06;;;2.33;100.00
31346;BME280;21711;49.708;18.568;2022-11-14T05:48:26;98189.09;;;2.31;100.00
31346;BME280;21711;49.708;18.568;2022-11-14T05:51:13;98182.66;;;2.27;100.00
31346;BME280;21711;49.708;18.568;2022-11-14T05:53:59;98186.72;;;2.43;100.00
31346;BME280;21711;49.708;18.568;2022-11-14T05:56:45;98183.75;;;2.53;100.00
31346;BME280;21711;49.708;18.568;2022-11-14T05:59:31;98184.31;;;2.48;100.00
31346;BME280;21711;49.708;18.568;2022-11-14T06:02:16;98184.50;;;2.33;100.00
31346;BME280;21711;49.708;18.568;2022-11-14T06:05:02;98180.69;;;2.35;100.00
31346;BME280;21711;49.708;18.568;2022-11-14T06:07:55;98187.53;;;2.43;100.00
31346;BME280;21711;49.708;18.568;2022-11-14T06:10:41;98186.75;;;2.49;100.00
31346;BME280;21711;49.708;18.568;2022-11-14T06:13:27;98188.16;;;2.59;100.00
31346;BME280;21711;49.708;18.568;2022-11-14T06:16:16;98190.56;;;2.47;100.00
31346;BME280;21711;49.708;18.568;2022-11-14T06:19:02;98192.38;;;2.53;100.00
31346;BME280;21711;49.708;18.568;2022-11-14T06:21:50;98195.59;;;2.48;100.00
31346;BME280;21711;49.708;18.568;2022-11-14T06:24:36;98182.50;;;2.42;100.00
31346;BME280;21711;49.708;18.568;2022-11-14T06:27:23;98189.34;;;2.43;100.00
31346;BME280;21711;49.708;18.568;2022-11-14T06:30:10;98189.97;;;2.45;100.00
31346;BME280;21711;49.708;18.568;2022-11-14T06:32:57;98185.91;;;2.42;100.00
31346;BME280;21711;49.708;18.568;2022-11-14T06:35:45;98197.81;;;2.58;100.00
31346;BME280;21711;49.708;18.568;2022-11-14T06:38:34;98193.19;;;2.60;100.00
31346;BME280;21711;49.708;18.568;2022-11-14T06:41:21;98193.59;;;2.57;100.00
31346;BME280;21711;49.708;18.568;2022-11-14T06:44:08;98195.59;;;2.48;100.00
31346;BME280;21711;49.708;18.568;2022-11-14T06:46:54;98186.34;;;2.46;100.00
31346;BME280;21711;49.708;18.568;2022-11-14T06:49:41;98190.97;;;2.57;100.00
31346;BME280;21711;49.708;18.568;2022-11-14T06:52:27;98189.75;;;2.53;100.00
31346;BME280;21711;49.708;18.568;2022-11-14T06:55:12;98184.38;;;2.68;100.00
31346;BME280;21711;49.708;18.568;2022-11-14T06:57:58;98183.56;;;2.74;100.00
31346;BME280;21711;49.708;18.568;2022-11-14T07:00:43;98182.78;;;2.94;100.00
31346;BME280;21711;49.708;18.568;2022-11-14T07:03:29;98199.09;;;3.23;100.00
31346;BME280;21711;49.708;18.568;2022-11-14T07:06:21;98194.63;;;3.71;100.00
31346;BME280;21711;49.708;18.568;2022-11-14T07:09:09;98196.31;;;4.11;100.00
31346;BME280;21711;49.708;18.568;2022-11-14T07:11:55;98190.00;;;4.97;100.00
31346;BME280;21711;49.708;18.568;2022-11-14T07:14:42;98181.06;;;5.93;100.00
31346;BME280;21711;49.708;18.568;2022-11-14T07:17:28;98189.13;;;6.48;100.00
31346;BME280;21711;49.708;18.568;2022-11-14T07:20:16;98196.94;;;6.97;100.00
31346;BME280;21711;49.708;18.568;2022-11-14T07:23:04;98195.56;;;7.06;100.00
31346;BME280;21711;49.708;18.568;2022-11-14T07:25:50;98186.22;;;6.68;100.00
31346;BME280;21711;49.708;18.568;2022-11-14T07:28:42;98187.28;;;6.91;100.00
31346;BME280;21711;49.708;18.568;2022-11-14T07:31:32;98201.22;;;8.52;100.00
31346;BME280;21711;49.708;18.568;2022-11-14T07:34:18;98185.88;;;9.46;100.00
31346;BME280;21711;49.708;18.568;2022-11-14T07:37:04;98199.34;;;10.79;100.00
31346;BME280;21711;49.708;18.568;2022-11-14T07:39:50;98193.63;;;12.27;100.00
31346;BME280;21711;49.708;18.568;2022-11-14T07:42:36;98188.97;;;12.92;100.00
31346;BME280;21711;49.708;18.568;2022-11-14T07:45:22;98184.75;;;12.91;100.00
31346;BME280;21711;49.708;18.568;2022-11-14T07:48:07;98186.56;;;13.37;99.53
31346;BME280;21711;49.708;18.568;2022-11-14T07:51:02;98188.13;;;13.74;60.07
31346;BME280;21711;49.708;18.568;2022-11-14T07:53:51;98186.47;;;14.90;56.96
31346;BME280;21711;49.708;18.568;2022-11-14T07:56:40;98187.63;;;15.43;55.73
31346;BME280;21711;49.708;18.568;2022-11-14T07:59:25;98188.13;;;16.95;50.72
31346;BME280;21711;49.708;18.568;2022-11-14T08:02:12;98179.03;;;17.29;48.53
31346;BME280;21711;49.708;18.568;2022-11-14T08:04:59;98180.03;;;18.32;45.02
31346;BME280;21711;49.708;18.568;2022-11-14T08:07:46;98171.81;;;18.28;44.72
31346;BME280;21711;49.708;18.568;2022-11-14T08:10:34;98172.66;;;18.74;44.08
31346;BME280;21711;49.708;18.568;2022-11-14T08:13:20;98160.44;;;18.91;42.63
31346;BME280;21711;49.708;18.568;2022-11-14T08:16:21;98170.78;;;18.75;42.82
31346;BME280;21711;49.708;18.568;2022-11-14T08:19:07;98173.47;;;19.61;42.08
31346;BME280;21711;49.708;18.568;2022-11-14T08:21:53;98163.13;;;19.86;41.69
31346;BME280;21711;49.708;18.568;2022-11-14T08:24:39;98166.50;;;19.60;42.21
31346;BME280;21711;49.708;18.568;2022-11-14T08:27:25;98167.44;;;20.14;41.74
31346;BME280;21711;49.708;18.568;2022-11-14T08:30:11;98154.75;;;19.38;41.91
31346;BME280;21711;49.708;18.568;2022-11-14T08:33:01;98168.25;;;20.23;40.86
31346;BME280;21711;49.708;18.568;2022-11-14T08:35:47;98162.53;;;21.13;39.23
31346;BME280;21711;49.708;18.568;2022-11-14T08:38:34;98162.88;;;20.85;39.74
31346;BME280;21711;49.708;18.568;2022-11-14T08:41:20;98154.38;;;21.70;38.83
31346;BME280;21711;49.708;18.568;2022-11-14T08:44:05;98164.13;;;22.34;37.18
31346;BME280;21711;49.708;18.568;2022-11-14T08:46:51;98153.47;;;21.74;38.39
31346;BME280;21711;49.708;18.568;2022-11-14T08:49:37;98147.50;;;21.90;37.81
31346;BME280;21711;49.708;18.568;2022-11-14T08:52:23;98157.69;;;22.05;37.23
31346;BME280;21711;49.708;18.568;2022-11-14T08:55:09;98163.00;;;22.36;36.72
31346;BME280;21711;49.708;18.568;2022-11-14T08:57:54;98155.47;;;21.77;37.85
31346;BME280;21711;49.708;18.568;2022-11-14T09:00:41;98161.56;;;22.81;35.49
31346;BME280;21711;49.708;18.568;2022-11-14T09:03:26;98158.50;;;22.70;35.65
31346;BME280;21711;49.708;18.568;2022-11-14T09:06:12;98161.69;;;23.31;35.01
31346;BME280;21711;49.708;18.568;2022-11-14T09:08:58;98162.88;;;23.21;34.40
31346;BME280;21711;49.708;18.568;2022-11-14T09:11:44;98156.47;;;23.13;34.29
31346;BME280;21711;49.708;18.568;2022-11-14T09:14:29;98161.13;;;25.27;30.96
31346;BME280;21711;49.708;18.568;2022-11-14T09:17:15;98153.50;;;25.65;29.42
31346;BME280;21711;49.708;18.568;2022-11-14T09:20:02;98158.75;;;26.09;28.83
31346;BME280;21711;49.708;18.568;2022-11-14T09:22:48;98140.03;;;25.84;28.86
31346;BME280;21711;49.708;18.568;2022-11-14T09:25:36;98145.81;;;26.58;28.07
31346;BME280;21711;49.708;18.568;2022-11-14T09:28:23;98141.44;;;26.73;27.57
31346;BME280;21711;49.708;18.568;2022-11-14T09:31:12;98132.34;;;25.86;30.26
31346;BME280;21711;49.708;18.568;2022-11-14T09:33:57;98126.81;;;25.15;30.36
31346;BME280;21711;49.708;18.568;2022-11-14T09:36:43;98118.88;;;23.79;31.88
31346;BME280;21711;49.708;18.568;2022-11-14T09:39:29;98123.09;;;24.17;31.73
31346;BME280;21711;49.708;18.568;2022-11-14T09:45:29;98099.75;;;23.34;33.48
31346;BME280;21711;49.708;18.568;2022-11-14T09:48:20;98101.47;;;22.80;34.01
31346;BME280;21711;49.708;18.568;2022-11-14T09:51:13;98104.56;;;23.16;34.83
31346;BME280;21711;49.708;18.568;2022-11-14T09:54:27;98091.06;;;22.57;34.80
31346;BME280;21711;49.708;18.568;2022-11-14T09:57:19;98082.38;;;21.66;37.57
31346;BME280;21711;49.708;18.568;2022-11-14T10:00:17;98081.28;;;21.37;38.10
31346;BME280;21711;49.708;18.568;2022-11-14T10:04:00;98073.38;;;21.41;36.37
31346;BME280;21711;49.708;18.568;2022-11-14T10:13:54;98051.38;;;19.99;39.75
31346;BME280;21711;49.708;18.568;2022-11-14T10:20:29;98037.66;;;20.84;40.31
31346;BME280;21711;49.708;18.568;2022-11-14T10:26:29;98032.09;;;21.58;38.09
31346;BME280;21711;49.708;18.568;2022-11-14T10:42:38;98023.44;;;23.34;34.56
31346;BME280;21711;49.708;18.568;2022-11-14T10:45:36;98018.47;;;23.11;35.81
31346;BME280;21711;49.708;18.568;2022-11-14T10:48:44;98022.16;;;24.26;33.32
31346;BME280;21711;49.708;18.568;2022-11-14T10:51:42;98019.28;;;24.95;31.97
31346;BME280;21711;49.708;18.568;2022-11-14T10:54:56;98024.47;;;25.92;31.35
31346;BME280;21711;49.708;18.568;2022-11-14T10:57:45;98015.94;;;25.90;30.74
31346;BME280;21711;49.708;18.568;2022-11-14T11:00:31;98011.31;;;26.53;31.25
31346;BME280;21711;49.708;18.568;2022-11-14T11:03:17;98015.81;;;27.74;28.60
31346;BME280;21711;49.708;18.568;2022-11-14T11:06:02;98016.44;;;28.28;28.28
31346;BME280;21711;49.708;18.568;2022-11-14T11:08:48;98014.56;;;29.34;27.14
31346;BME280;21711;49.708;18.568;2022-11-14T11:11:57;98008.56;;;29.77;25.37
31346;BME280;21711;49.708;18.568;2022-11-14T11:14:44;98003.00;;;28.46;26.74
31346;BME280;21711;49.708;18.568;2022-11-14T11:17:30;97999.03;;;29.38;25.71
31346;BME280;21711;49.708;18.568;2022-11-14T11:20:34;97997.31;;;29.11;25.41
31346;BME280;21711;49.708;18.568;2022-11-14T11:23:30;97996.16;;;29.12;25.52
31346;BME280;21711;49.708;18.568;2022-11-14T11:26:26;97985.56;;;28.47;28.30
31346;BME280;21711;49.708;18.568;2022-11-14T11:29:15;97983.75;;;27.87;29.63
31346;BME280;21711;49.708;18.568;2022-11-14T11:32:03;97979.31;;;27.44;29.59
31346;BME280;21711;49.708;18.568;2022-11-14T11:34:50;97976.91;;;26.34;32.29
31346;BME280;21711;49.708;18.568;2022-11-14T11:37:52;97964.78;;;24.00;35.44
31346;BME280;21711;49.708;18.568;2022-11-14T11:40:44;97962.22;;;23.63;37.19
31346;BME280;21711;49.708;18.568;2022-11-14T11:49:47;97964.84;;;24.49;35.18
31346;BME280;21711;49.708;18.568;2022-11-14T11:53:00;97956.66;;;24.61;34.80
31346;BME280;21711;49.708;18.568;2022-11-14T11:55:57;97953.53;;;22.66;38.39
31346;BME280;21711;49.708;18.568;2022-11-14T11:58:55;97945.94;;;22.34;39.54
31346;BME280;21711;49.708;18.568;2022-11-14T12:01:43;97950.38;;;23.02;38.30
31346;BME280;21711;49.708;18.568;2022-11-14T12:04:30;97943.88;;;22.90;38.54
31346;BME280;21711;49.708;18.568;2022-11-14T12:07:24;97939.72;;;21.75;40.75
31346;BME280;21711;49.708;18.568;2022-11-14T12:10:26;97941.41;;;22.60;39.25
31346;BME280;21711;49.708;18.568;2022-11-14T12:14:01;97938.25;;;23.08;37.95
31346;BME280;21711;49.708;18.568;2022-11-14T12:30:22;97918.03;;;21.50;41.96
31346;BME280;21711;49.708;18.568;2022-11-14T12:33:11;97925.53;;;20.93;44.88
31346;BME280;21711;49.708;18.568;2022-11-14T12:36:07;97918.16;;;20.90;45.15
31346;BME280;21711;49.708;18.568;2022-11-14T12:38:55;97919.44;;;20.36;46.80
31346;BME280;21711;49.708;18.568;2022-11-14T12:41:41;97904.91;;;19.18;48.92
31346;BME280;21711;49.708;18.568;2022-11-14T12:47:27;97893.75;;;17.81;53.27
31346;BME280;21711;49.708;18.568;2022-11-14T12:50:30;97895.03;;;17.24;56.52
31346;BME280;21711;49.708;18.568;2022-11-14T12:59:48;97884.88;;;15.03;66.46
31346;BME280;21711;49.708;18.568;2022-11-14T13:06:07;97883.31;;;14.29;70.50
31346;BME280;21711;49.708;18.568;2022-11-14T13:13:28;97871.56;;;13.31;75.89
31346;BME280;21711;49.708;18.568;2022-11-14T13:16:28;97863.22;;;13.02;78.56
31346;BME280;21711;49.708;18.568;2022-11-14T13:19:33;97866.16;;;13.01;79.67
31346;BME280;21711;49.708;18.568;2022-11-14T13:22:48;97858.06;;;12.71;81.96
31346;BME280;21711;49.708;18.568;2022-11-14T13:25:34;97858.13;;;12.56;83.70
31346;BME280;21711;49.708;18.568;2022-11-14T13:28:49;97855.78;;;12.28;89.17
31346;BME280;21711;49.708;18.568;2022-11-14T13:34:57;97857.69;;;12.12;93.01
31346;BME280;21711;49.708;18.568;2022-11-14T13:47:41;97853.19;;;11.40;94.25
31346;BME280;21711;49.708;18.568;2022-11-14T13:50:36;97855.25;;;11.27;98.55
31346;BME280;21711;49.708;18.568;2022-11-14T13:53:28;97846.00;;;11.30;97.52
31346;BME280;21711;49.708;18.568;2022-11-14T13:56:38;97843.59;;;11.18;99.89
31346;BME280;21711;49.708;18.568;2022-11-14T14:00:10;97837.47;;;11.07;96.97
31346;BME280;21711;49.708;18.568;2022-11-14T14:09:24;97843.22;;;10.78;100.00
31346;BME280;21711;49.708;18.568;2022-11-14T14:18:53;97848.75;;;10.71;97.81
31346;BME280;21711;49.708;18.568;2022-11-14T14:25:22;97834.94;;;10.48;100.00
31346;BME280;21711;49.708;18.568;2022-11-14T14:31:17;97837.63;;;10.16;100.00
31346;BME280;21711;49.708;18.568;2022-11-14T14:34:27;97841.28;;;10.09;100.00
31346;BME280;21711;49.708;18.568;2022-11-14T14:37:19;97830.63;;;9.94;100.00
31346;BME280;21711;49.708;18.568;2022-11-14T14:43:34;97825.41;;;9.33;100.00
31346;BME280;21711;49.708;18.568;2022-11-14T14:46:31;97824.78;;;9.26;100.00
31346;BME280;21711;49.708;18.568;2022-11-14T14:49:33;97817.19;;;9.30;100.00
31346;BME280;21711;49.708;18.568;2022-11-14T14:52:31;97819.03;;;9.02;100.00
31346;BME280;21711;49.708;18.568;2022-11-14T14:55:27;97822.59;;;8.90;100.00
31346;BME280;21711;49.708;18.568;2022-11-14T14:58:14;97825.69;;;8.60;100.00
31346;BME280;21711;49.708;18.568;2022-11-14T15:01:18;97823.00;;;8.37;100.00
31346;BME280;21711;49.708;18.568;2022-11-14T15:04:07;97819.28;;;8.33;100.00
31346;BME280;21711;49.708;18.568;2022-11-14T15:06:58;97821.38;;;8.31;100.00
31346;BME280;21711;49.708;18.568;2022-11-14T15:09:56;97819.66;;;8.42;100.00
31346;BME280;21711;49.708;18.568;2022-11-14T15:12:42;97818.44;;;8.27;100.00
31346;BME280;21711;49.708;18.568;2022-11-14T15:15:29;97814.00;;;8.33;100.00
31346;BME280;21711;49.708;18.568;2022-11-14T15:18:27;97825.16;;;8.18;100.00
31346;BME280;21711;49.708;18.568;2022-11-14T15:24:18;97809.81;;;7.75;100.00
31346;BME280;21711;49.708;18.568;2022-11-14T15:27:17;97810.81;;;7.57;100.00
31346;BME280;21711;49.708;18.568;2022-11-14T15:30:17;97815.16;;;7.63;100.00
31346;BME280;21711;49.708;18.568;2022-11-14T15:33:23;97814.03;;;7.42;100.00
31346;BME280;21711;49.708;18.568;2022-11-14T15:36:15;97811.78;;;7.34;100.00
31346;BME280;21711;49.708;18.568;2022-11-14T15:39:27;97818.78;;;7.28;100.00
31346;BME280;21711;49.708;18.568;2022-11-14T15:42:26;97812.00;;;7.32;100.00
31346;BME280;21711;49.708;18.568;2022-11-14T15:45:25;97815.44;;;7.33;100.00
31346;BME280;21711;49.708;18.568;2022-11-14T15:48:17;97813.00;;;7.60;100.00
31346;BME280;21711;49.708;18.568;2022-11-14T15:51:04;97815.44;;;7.84;100.00
31346;BME280;21711;49.708;18.568;2022-11-14T15:53:49;97812.97;;;7.78;100.00
31346;BME280;21711;49.708;18.568;2022-11-14T15:56:37;97813.28;;;7.64;100.00
31346;BME280;21711;49.708;18.568;2022-11-14T15:59:25;97814.81;;;7.43;100.00
31346;BME280;21711;49.708;18.568;2022-11-14T16:02:20;97810.59;;;7.42;100.00
31346;BME280;21711;49.708;18.568;2022-11-14T16:05:10;97805.63;;;7.28;100.00
31346;BME280;21711;49.708;18.568;2022-11-14T16:07:56;97804.03;;;7.44;100.00
31346;BME280;21711;49.708;18.568;2022-11-14T16:10:42;97807.34;;;7.52;100.00
31346;BME280;21711;49.708;18.568;2022-11-14T16:13:28;97806.06;;;7.54;100.00
31346;BME280;21711;49.708;18.568;2022-11-14T16:16:15;97799.28;;;7.58;100.00
31346;BME280;21711;49.708;18.568;2022-11-14T16:19:01;97796.44;;;7.99;100.00
31346;BME280;21711;49.708;18.568;2022-11-14T16:21:46;97797.16;;;8.34;100.00
31346;BME280;21711;49.708;18.568;2022-11-14T16:24:32;97789.66;;;7.86;100.00
31346;BME280;21711;49.708;18.568;2022-11-14T16:27:19;97787.47;;;7.61;100.00
31346;BME280;21711;49.708;18.568;2022-11-14T16:30:05;97789.06;;;7.62;100.00
31346;BME280;21711;49.708;18.568;2022-11-14T16:32:51;97792.75;;;7.61;100.00
31346;BME280;21711;49.708;18.568;2022-11-14T16:35:37;97795.53;;;7.37;100.00
31346;BME280;21711;49.708;18.568;2022-11-14T16:38:23;97790.00;;;7.21;100.00
31346;BME280;21711;49.708;18.568;2022-11-14T16:41:09;97795.41;;;7.15;100.00